Time;durP1;ratioP1;P1;durP2;ratioP2;P2;SDS_P1;SDS_P2;PMS_P1;PMS_P2;Temp;Humidity;BMP_temperature;BMP_pressure;BME280_temperature;BME280_humidity;BME280_pressure;Samples;Min_cycle;Max_cycle;Signal;HPM_P1;HPM_P2
2022/03/09 00:00:15;;;;;;;93.55;55.65;;;;;;;22.47;45.19;102579.41;5054532;28;20507;-64
2022/03/09 00:02:41;;;;;;;96.95;56.30;;;;;;;22.45;45.47;102573.25;5054680;28;20532;-64
2022/03/09 00:05:07;;;;;;;93.10;57.33;;;;;;;22.46;44.92;102579.59;5054452;28;20033;-64
2022/03/09 00:07:32;;;;;;;94.28;57.55;;;;;;;22.44;44.90;102571.53;5054510;28;20047;-64
2022/03/09 00:09:57;;;;;;;95.05;57.97;;;;;;;22.77;45.07;102569.06;5054665;28;20052;-64
2022/03/09 00:12:23;;;;;;;94.55;55.67;;;;;;;23.05;46.90;102570.69;5054211;28;20021;-64
2022/03/09 00:14:48;;;;;;;104.38;61.58;;;;;;;23.25;48.76;102573.19;5054865;28;20051;-64
2022/03/09 00:17:13;;;;;;;108.13;60.80;;;;;;;23.29;50.17;102566.34;5054315;28;20361;-64
2022/03/09 00:19:39;;;;;;;105.50;63.47;;;;;;;23.34;51.56;102580.44;5054414;28;20021;-64
2022/03/09 00:22:05;;;;;;;118.93;67.63;;;;;;;23.37;52.02;102586.50;5054347;28;20033;-64
2022/03/09 00:24:30;;;;;;;123.13;69.22;;;;;;;23.45;53.34;102577.44;5054228;28;20025;-64
2022/03/09 00:26:55;;;;;;;128.77;73.47;;;;;;;23.47;54.83;102575.38;5054649;28;20036;-64
2022/03/09 00:29:21;;;;;;;126.13;72.95;;;;;;;23.49;54.24;102581.56;5054062;28;20071;-64
2022/03/09 00:31:46;;;;;;;145.07;81.70;;;;;;;23.38;56.05;102581.88;5054245;28;20029;-64
2022/03/09 00:34:11;;;;;;;137.15;76.68;;;;;;;23.39;56.13;102575.34;5053635;28;20088;-64
2022/03/09 00:36:37;;;;;;;141.60;83.35;;;;;;;23.44;56.27;102569.34;5053934;28;20550;-64
2022/03/09 00:39:02;;;;;;;146.57;82.72;;;;;;;23.48;56.78;102577.09;5054205;28;20107;-64
2022/03/09 00:41:28;;;;;;;146.43;86.07;;;;;;;23.49;56.55;102573.31;5053769;28;20029;-64
2022/03/09 00:43:53;;;;;;;162.57;90.57;;;;;;;23.46;56.21;102579.16;5053933;28;20056;-64
2022/03/09 00:46:19;;;;;;;171.20;92.95;;;;;;;23.49;56.53;102587.03;5053575;28;20032;-64
2022/03/09 00:48:44;;;;;;;158.38;89.15;;;;;;;23.53;56.59;102585.72;5053734;28;20525;-65
2022/03/09 00:51:09;;;;;;;155.52;88.47;;;;;;;23.52;56.90;102588.63;5053755;28;20025;-64
2022/03/09 00:53:34;;;;;;;170.85;95.53;;;;;;;23.53;56.31;102591.22;5053596;28;20024;-65
2022/03/09 00:56:00;;;;;;;173.77;96.63;;;;;;;23.54;56.67;102592.94;5053392;28;20032;-64
2022/03/09 00:58:25;;;;;;;173.10;93.13;;;;;;;23.55;56.51;102588.31;5053331;28;20031;-64
2022/03/09 01:00:50;;;;;;;183.40;100.18;;;;;;;23.57;55.67;102587.13;5053673;28;20021;-64
2022/03/09 01:03:16;;;;;;;177.90;98.93;;;;;;;23.57;55.57;102580.78;5053058;28;20024;-64
2022/03/09 01:05:42;;;;;;;175.13;98.90;;;;;;;23.58;55.51;102588.84;5053418;28;20480;-64
2022/03/09 01:08:07;;;;;;;171.18;95.68;;;;;;;23.61;55.21;102587.66;5053467;28;20025;-64
2022/03/09 01:10:33;;;;;;;175.55;98.43;;;;;;;23.59;55.59;102590.56;5053215;28;20357;-64
2022/03/09 01:12:58;;;;;;;168.40;96.43;;;;;;;23.61;54.75;102594.00;5053492;28;20440;-64
2022/03/09 01:15:24;;;;;;;170.02;98.82;;;;;;;23.63;54.45;102597.44;5053178;28;20025;-64
2022/03/09 01:17:49;;;;;;;178.27;99.70;;;;;;;23.61;55.13;102594.00;5053371;28;20029;-64
2022/03/09 01:20:14;;;;;;;170.23;97.40;;;;;;;23.67;54.24;102597.97;5052991;28;20629;-64
2022/03/09 01:22:40;;;;;;;174.93;98.28;;;;;;;23.65;54.19;102595.41;5053149;28;20025;-64
2022/03/09 01:25:06;;;;;;;187.18;105.80;;;;;;;23.65;54.50;102600.88;5053200;28;20027;-64
2022/03/09 01:27:32;;;;;;;180.05;102.53;;;;;;;23.65;53.58;102594.53;5053024;28;20116;-64
2022/03/09 01:29:57;;;;;;;172.50;96.63;;;;;;;23.66;53.79;102594.38;5053191;28;20103;-64
2022/03/09 01:32:22;;;;;;;168.40;93.75;;;;;;;23.72;53.53;102597.50;5051464;28;20017;-64
2022/03/09 01:34:49;;;;;;;165.50;95.00;;;;;;;23.66;53.24;102597.13;5052891;28;20066;-64
2022/03/09 01:37:14;;;;;;;166.10;93.20;;;;;;;23.68;53.32;102594.19;5052747;28;20074;-64
2022/03/09 01:39:39;;;;;;;166.95;96.43;;;;;;;23.74;53.03;102603.69;5053185;28;20104;-63
2022/03/09 01:42:05;;;;;;;168.30;98.93;;;;;;;23.67;52.99;102593.34;5052823;28;20035;-64
2022/03/09 01:44:30;;;;;;;177.65;98.78;;;;;;;23.68;53.25;102597.84;5052487;28;20480;-65
2022/03/09 01:46:55;;;;;;;177.15;97.57;;;;;;;23.68;52.95;102596.94;5052634;28;20094;-64
2022/03/09 01:49:22;;;;;;;183.60;100.32;;;;;;;23.72;53.29;102600.25;5052433;28;20554;-65
2022/03/09 01:51:51;;;;;;;176.02;99.75;;;;;;;23.69;52.70;102601.44;5053030;28;20083;-64
2022/03/09 01:54:16;;;;;;;160.70;94.43;;;;;;;23.77;52.60;102597.84;5052191;28;20423;-65
2022/03/09 01:56:42;;;;;;;176.43;98.57;;;;;;;23.76;52.77;102590.66;5052713;28;20020;-64
2022/03/09 01:59:10;;;;;;;173.38;99.63;;;;;;;23.70;52.76;102593.03;5052581;28;20559;-63
2022/03/09 02:01:36;;;;;;;183.45;100.70;;;;;;;23.72;52.76;102589.28;5052465;28;20024;-63
2022/03/09 02:04:04;;;;;;;182.55;103.40;;;;;;;23.74;52.27;102596.31;5052288;28;20491;-64
2022/03/09 02:06:31;;;;;;;173.05;100.72;;;;;;;23.77;52.13;102597.84;5051693;28;20036;-64
2022/03/09 02:11:42;;;;;;;177.77;101.43;;;;;;;23.78;52.09;102607.81;5052741;28;20027;-64
2022/03/09 02:14:27;;;;;;;180.05;100.00;;;;;;;23.82;52.28;102606.44;5052345;28;20025;-64
2022/03/09 02:16:53;;;;;;;181.00;101.43;;;;;;;23.75;52.68;102617.25;5052408;28;20025;-64
2022/03/09 02:19:19;;;;;;;185.85;101.95;;;;;;;23.78;52.40;102618.81;5051817;28;20052;-64
2022/03/09 02:21:46;;;;;;;179.07;102.05;;;;;;;23.70;51.82;102617.75;5052434;28;20056;-64
2022/03/09 02:24:12;;;;;;;175.80;98.30;;;;;;;23.75;52.58;102616.38;5052078;28;20482;-64
2022/03/09 02:26:38;;;;;;;175.70;100.75;;;;;;;23.73;51.31;102612.97;5052232;28;20024;-64
2022/03/09 02:29:04;;;;;;;173.82;99.03;;;;;;;23.72;51.89;102608.50;5051049;28;20033;-64
2022/03/09 02:31:29;;;;;;;171.80;99.53;;;;;;;23.74;52.14;102611.94;5052009;28;20032;-64
2022/03/09 02:33:54;;;;;;;167.65;97.15;;;;;;;23.76;51.79;102613.47;5052012;28;20024;-64
2022/03/09 02:36:20;;;;;;;171.88;98.85;;;;;;;23.76;52.01;102607.97;5051851;28;20392;-64
2022/03/09 02:38:45;;;;;;;162.40;98.45;;;;;;;23.75;51.46;102613.66;5052157;28;20032;-64
2022/03/09 02:41:11;;;;;;;166.73;96.20;;;;;;;23.72;51.63;102617.59;5052049;28;20056;-64
2022/03/09 02:43:36;;;;;;;174.00;101.70;;;;;;;23.77;51.18;102617.09;5052092;28;20032;-64
2022/03/09 02:46:01;;;;;;;167.30;96.93;;;;;;;23.85;51.86;102617.09;5052181;28;20025;-64
2022/03/09 02:48:27;;;;;;;162.52;93.00;;;;;;;23.76;51.05;102618.13;5051591;28;20451;-64
2022/03/09 02:50:52;;;;;;;176.55;101.57;;;;;;;23.77;51.69;102614.34;5052051;28;20448;-64
2022/03/09 02:53:17;;;;;;;165.93;93.07;;;;;;;23.75;51.33;102616.38;5051811;28;20024;-64
2022/03/09 02:55:42;;;;;;;183.02;103.88;;;;;;;23.78;51.81;102599.56;5051865;28;20023;-64
2022/03/09 02:58:08;;;;;;;181.20;103.22;;;;;;;23.79;51.61;102612.28;5051874;28;20033;-64
2022/03/09 03:00:33;;;;;;;179.18;100.63;;;;;;;23.78;51.56;102599.56;5051637;28;20099;-64
2022/03/09 03:02:58;;;;;;;169.02;95.93;;;;;;;23.84;50.99;102605.25;5051495;28;20033;-64
2022/03/09 03:05:23;;;;;;;174.48;96.53;;;;;;;23.76;51.49;102607.97;5051606;28;20028;-64
2022/03/09 03:07:49;;;;;;;164.50;95.68;;;;;;;23.76;51.04;102607.13;5051691;28;20037;-64
2022/03/09 03:10:14;;;;;;;176.38;100.03;;;;;;;23.76;51.28;102609.88;5051583;28;20100;-64
2022/03/09 03:12:39;;;;;;;172.18;98.18;;;;;;;23.79;51.37;102615.03;5051610;28;20506;-64
2022/03/09 03:15:06;;;;;;;174.82;97.63;;;;;;;23.83;50.87;102619.16;5051512;28;20025;-64
2022/03/09 03:17:34;;;;;;;175.10;100.78;;;;;;;23.81;51.32;102621.22;5051451;28;20450;-64
2022/03/09 03:19:59;;;;;;;177.00;100.28;;;;;;;23.78;50.94;102625.16;5055154;28;20059;-64
2022/03/09 03:22:25;;;;;;;172.07;103.35;;;;;;;23.86;51.51;102632.59;5054905;28;20056;-64
2022/03/09 03:24:50;;;;;;;169.18;98.00;;;;;;;23.79;51.14;102634.25;5054044;28;20033;-64
2022/03/09 03:27:15;;;;;;;169.68;101.95;;;;;;;23.78;51.72;102643.53;5055032;28;20032;-64
2022/03/09 03:29:40;;;;;;;168.95;95.05;;;;;;;23.82;51.26;102639.41;5055154;28;20036;-64
2022/03/09 03:32:07;;;;;;;169.70;92.65;;;;;;;23.79;51.19;102639.75;5055192;28;20031;-64
2022/03/09 03:34:32;;;;;;;170.90;100.13;;;;;;;23.75;50.81;102652.09;5054638;28;20056;-64
2022/03/09 03:36:57;;;;;;;166.60;96.53;;;;;;;23.76;51.09;102645.56;5055116;28;20066;-64
2022/03/09 03:39:23;;;;;;;172.48;96.70;;;;;;;23.84;50.88;102645.59;5054785;28;20384;-64
2022/03/09 03:41:48;;;;;;;156.10;94.07;;;;;;;23.82;51.75;102648.50;5055029;28;20100;-64
2022/03/09 03:44:13;;;;;;;178.10;100.97;;;;;;;23.83;51.25;102636.50;5054160;28;20354;-64
2022/03/09 03:46:40;;;;;;;179.27;99.28;;;;;;;23.79;50.98;102634.25;5054845;28;20029;-64
2022/03/09 03:49:05;;;;;;;161.02;95.53;;;;;;;23.85;50.75;102641.81;5054653;28;20044;-64
2022/03/09 03:51:30;;;;;;;159.98;93.13;;;;;;;23.85;51.17;102611.59;5054643;28;20028;-64
2022/03/09 03:53:55;;;;;;;167.98;95.15;;;;;;;23.86;50.09;102621.59;5054993;28;20529;-63
2022/03/09 03:56:21;;;;;;;155.52;91.28;;;;;;;23.91;51.02;102595.34;5054219;28;20021;-63
2022/03/09 03:58:46;;;;;;;161.43;94.03;;;;;;;23.89;51.11;102667.97;5054817;28;20132;-63
2022/03/09 04:01:11;;;;;;;166.18;94.70;;;;;;;23.81;50.58;102667.91;5054471;28;20392;-64
2022/03/09 04:03:36;;;;;;;179.60;101.25;;;;;;;23.81;50.77;102655.03;5054135;28;20032;-64
2022/03/09 04:06:02;;;;;;;159.60;92.47;;;;;;;23.82;51.02;102661.38;5054426;28;20021;-65
2022/03/09 04:08:27;;;;;;;169.15;98.20;;;;;;;23.82;50.47;102661.38;5054129;28;20017;-65
2022/03/09 04:10:53;;;;;;;168.68;96.85;;;;;;;23.85;50.62;102656.44;5054564;28;20027;-64
2022/03/09 04:13:18;;;;;;;178.20;98.85;;;;;;;23.78;50.30;102638.03;5054138;28;20017;-65
2022/03/09 04:15:43;;;;;;;162.32;94.88;;;;;;;23.81;50.58;102648.69;5054331;28;20032;-64
2022/03/09 04:18:08;;;;;;;174.93;98.85;;;;;;;23.76;50.77;102651.06;5054152;28;20055;-64
2022/03/09 04:20:34;;;;;;;154.95;90.78;;;;;;;23.80;50.50;102653.31;5053929;28;20029;-64
2022/03/09 04:22:59;;;;;;;165.25;92.82;;;;;;;23.77;50.77;102645.41;5052869;28;20029;-64
2022/03/09 04:25:26;;;;;;;167.50;95.80;;;;;;;23.78;50.56;102655.38;5053873;28;20029;-65
2022/03/09 04:27:52;;;;;;;164.07;92.78;;;;;;;23.79;49.85;102650.72;5053907;28;20021;-65
2022/03/09 04:30:17;;;;;;;159.10;92.80;;;;;;;23.78;50.33;102662.75;5052421;28;20043;-64
2022/03/09 04:32:42;;;;;;;163.77;94.82;;;;;;;23.77;50.47;102656.41;5053162;28;20028;-65
2022/03/09 04:35:09;;;;;;;165.27;94.95;;;;;;;23.74;50.63;102659.47;5053798;28;20048;-64
2022/03/09 04:37:34;;;;;;;164.77;94.65;;;;;;;23.81;49.86;102665.16;5053759;28;20578;-64
2022/03/09 04:40:04;;;;;;;168.05;93.47;;;;;;;23.76;49.51;102656.56;5053900;28;20028;-64
2022/03/09 04:42:30;;;;;;;166.35;96.28;;;;;;;23.77;50.50;102669.25;5052938;28;20040;-65
2022/03/09 04:44:55;;;;;;;167.75;96.72;;;;;;;23.75;50.04;102665.81;5053936;28;20025;-64
2022/03/09 04:47:21;;;;;;;154.77;90.93;;;;;;;23.82;49.64;102666.88;5053178;28;20021;-65
2022/03/09 04:49:46;;;;;;;163.95;95.88;;;;;;;23.69;50.31;102670.97;5053552;28;20108;-64
2022/03/09 04:52:12;;;;;;;152.57;88.43;;;;;;;23.86;50.63;102679.28;5053373;28;20044;-65
2022/03/09 04:54:37;;;;;;;154.35;87.82;;;;;;;23.93;50.23;102680.34;5053321;28;20116;-64
2022/03/09 04:57:03;;;;;;;150.32;86.97;;;;;;;23.88;50.16;102679.97;5053589;28;20121;-65
2022/03/09 04:59:28;;;;;;;150.13;86.22;;;;;;;23.89;49.89;102688.03;5053148;28;20048;-64
2022/03/09 05:01:54;;;;;;;156.43;88.05;;;;;;;23.91;49.44;102687.88;5053101;28;20070;-64
2022/03/09 05:04:19;;;;;;;152.82;86.43;;;;;;;24.08;49.04;102686.94;5053044;28;20070;-65
2022/03/09 05:06:44;;;;;;;152.15;87.20;;;;;;;24.15;48.59;102682.47;5053423;28;20105;-65
2022/03/09 05:09:10;;;;;;;153.05;86.15;;;;;;;24.23;47.63;102687.16;5053224;28;20143;-65
2022/03/09 05:11:35;;;;;;;142.75;84.90;;;;;;;24.36;49.35;102682.09;5053607;28;20460;-65
2022/03/09 05:14:00;;;;;;;137.40;82.72;;;;;;;24.39;48.94;102689.13;5053702;28;20100;-64
2022/03/09 05:16:25;;;;;;;146.90;86.07;;;;;;;24.39;47.66;102686.38;5052760;28;20028;-64
2022/03/09 05:18:51;;;;;;;148.80;85.47;;;;;;;24.34;47.46;102686.00;5053014;28;20108;-64
2022/03/09 05:21:16;;;;;;;146.05;83.25;;;;;;;24.37;46.99;102688.44;5051537;28;20029;-64
2022/03/09 05:23:41;;;;;;;134.82;78.00;;;;;;;24.52;48.11;102692.25;5052913;28;20460;-64
2022/03/09 05:26:07;;;;;;;133.30;77.38;;;;;;;24.59;47.55;102690.56;5052992;28;20033;-65
2022/03/09 05:28:33;;;;;;;134.70;80.10;;;;;;;24.52;47.67;102692.25;5052724;28;20578;-64
2022/03/09 05:30:58;;;;;;;134.77;77.75;;;;;;;24.59;47.79;102693.31;5052989;28;20060;-65
2022/03/09 05:33:23;;;;;;;138.70;80.70;;;;;;;24.50;47.44;102694.31;5052386;28;20021;-64
2022/03/09 05:35:48;;;;;;;129.52;77.45;;;;;;;24.63;47.44;102700.19;5053011;28;20028;-64
2022/03/09 05:38:14;;;;;;;135.32;78.35;;;;;;;24.62;47.88;102698.47;5052569;28;20452;-64
2022/03/09 05:40:40;;;;;;;136.75;79.70;;;;;;;24.57;46.38;102706.38;5051336;28;20029;-64
2022/03/09 05:43:05;;;;;;;135.70;78.63;;;;;;;24.71;47.79;102713.97;5052507;28;20511;-64
2022/03/09 05:45:30;;;;;;;136.48;78.90;;;;;;;24.63;47.13;102713.94;5052540;28;20574;-64
2022/03/09 05:47:55;;;;;;;124.63;76.38;;;;;;;24.69;47.11;102716.03;5052505;28;20056;-64
2022/03/09 05:50:21;;;;;;;129.10;77.57;;;;;;;24.60;46.75;102720.63;5052326;28;20024;-65
2022/03/09 05:52:46;;;;;;;144.00;79.50;;;;;;;24.50;46.67;102721.78;5052662;28;20043;-64
2022/03/09 05:55:12;;;;;;;120.70;70.07;;;;;;;24.73;47.30;102728.41;5052410;28;20020;-64
2022/03/09 05:57:37;;;;;;;119.43;71.40;;;;;;;24.58;47.19;102724.59;5052471;28;20032;-64
2022/03/09 06:00:06;;;;;;;120.65;70.65;;;;;;;24.59;45.84;102726.31;5052447;28;20086;-64
2022/03/09 06:02:31;;;;;;;119.60;68.18;;;;;;;24.60;46.23;102728.03;5051710;28;20535;-64
2022/03/09 06:04:57;;;;;;;125.05;70.90;;;;;;;24.58;46.59;102733.69;5052488;28;20060;-64
2022/03/09 06:07:22;;;;;;;119.90;70.65;;;;;;;24.52;46.26;102741.72;5052370;28;20021;-65
2022/03/09 06:09:49;;;;;;;118.88;71.65;;;;;;;24.57;46.41;102733.88;5052267;28;20025;-65
2022/03/09 06:12:15;;;;;;;115.20;67.55;;;;;;;24.58;46.57;102741.94;5052273;28;20032;-64
2022/03/09 06:14:42;;;;;;;113.63;67.93;;;;;;;24.62;46.84;102742.47;5052162;28;20016;-64
2022/03/09 06:17:08;;;;;;;120.75;69.97;;;;;;;24.56;46.45;102732.16;5052032;28;20348;-65
2022/03/09 06:19:33;;;;;;;114.70;67.32;;;;;;;24.59;45.86;102742.81;5052124;28;20108;-64
2022/03/09 06:21:58;;;;;;;120.80;67.68;;;;;;;24.62;46.30;102736.97;5052164;28;20027;-64
2022/03/09 06:24:24;;;;;;;113.47;65.57;;;;;;;24.67;46.25;102740.06;5051866;28;20039;-64
2022/03/09 06:26:49;;;;;;;109.97;63.25;;;;;;;24.69;46.34;102743.53;5052316;28;20562;-65
2022/03/09 06:29:14;;;;;;;110.40;63.22;;;;;;;24.70;45.79;102742.50;5050632;28;20028;-64
2022/03/09 06:31:42;;;;;;;104.05;60.78;;;;;;;24.71;46.58;102738.72;5052430;28;20098;-65
2022/03/09 06:34:07;;;;;;;104.70;63.00;;;;;;;24.62;45.90;102736.09;5052158;28;20048;-64
2022/03/09 06:36:33;;;;;;;103.10;60.47;;;;;;;24.67;46.37;102745.56;5052078;28;20057;-65
2022/03/09 06:38:59;;;;;;;111.50;62.83;;;;;;;24.66;45.76;102743.84;5052080;28;20021;-65
2022/03/09 06:41:24;;;;;;;104.07;61.83;;;;;;;24.73;45.17;102755.91;5051740;28;20025;-64
2022/03/09 06:43:50;;;;;;;103.55;62.63;;;;;;;24.73;45.37;102744.06;5051940;28;20032;-64
2022/03/09 06:46:16;;;;;;;112.53;63.58;;;;;;;24.68;45.17;102752.78;5051666;28;20032;-64
2022/03/09 06:48:42;;;;;;;102.78;60.35;;;;;;;24.67;45.72;102748.31;5051838;28;20484;-66
2022/03/09 06:51:07;;;;;;;103.95;63.03;;;;;;;24.74;45.50;102756.78;5051808;28;20029;-64
2022/03/09 06:53:32;;;;;;;101.20;61.65;;;;;;;24.67;45.60;102759.31;5053198;28;20025;-64
2022/03/09 06:55:58;;;;;;;101.10;59.30;;;;;;;24.78;45.53;102752.66;5055916;28;20025;-64
2022/03/09 06:58:26;;;;;;;99.10;57.85;;;;;;;24.69;45.57;102765.53;5054045;28;20025;-64
2022/03/09 07:00:52;;;;;;;101.28;58.53;;;;;;;24.78;45.85;102767.25;5055839;28;20028;-64
2022/03/09 07:03:17;;;;;;;100.30;58.50;;;;;;;24.81;45.75;102760.56;5055224;28;20041;-64
2022/03/09 07:05:42;;;;;;;97.05;56.28;;;;;;;24.72;45.45;102759.69;5055810;28;20039;-65
2022/03/09 07:08:07;;;;;;;88.57;53.75;;;;;;;24.80;45.84;102772.59;5055637;28;20233;-65
2022/03/09 07:10:33;;;;;;;95.22;54.42;;;;;;;24.75;45.80;102770.34;5054907;28;20052;-65
2022/03/09 07:12:58;;;;;;;91.90;54.80;;;;;;;24.83;45.18;102766.75;5055366;28;20044;-65
2022/03/09 07:15:23;;;;;;;90.43;53.53;;;;;;;24.73;45.01;102771.56;5055270;28;20029;-64
2022/03/09 07:17:49;;;;;;;88.97;53.05;;;;;;;24.78;45.14;102775.50;5055322;28;20040;-64
2022/03/09 07:20:15;;;;;;;90.43;52.90;;;;;;;24.84;45.94;102769.31;5055060;28;20025;-64
2022/03/09 07:22:43;;;;;;;92.78;54.63;;;;;;;24.84;45.42;102769.31;5055260;28;20462;-64
2022/03/09 07:25:10;;;;;;;91.78;54.72;;;;;;;24.83;45.70;102773.09;5055264;28;20021;-64
2022/03/09 07:27:35;;;;;;;91.20;55.38;;;;;;;24.80;45.33;102778.09;5055628;28;20036;-65
2022/03/09 07:30:02;;;;;;;90.43;52.97;;;;;;;24.77;45.59;102784.81;5054811;28;20044;-64
2022/03/09 07:32:27;;;;;;;88.30;54.15;;;;;;;24.79;45.74;102793.75;5054348;28;20057;-65
2022/03/09 07:34:53;;;;;;;92.15;53.72;;;;;;;24.77;45.47;102789.44;5054609;28;20090;-65
2022/03/09 07:37:18;;;;;;;93.70;51.92;;;;;;;24.87;44.50;102788.28;5054888;28;20039;-65
2022/03/09 07:39:44;;;;;;;90.03;52.58;;;;;;;24.86;44.79;102793.94;5055088;28;20085;-64
2022/03/09 07:42:09;;;;;;;82.50;50.28;;;;;;;24.86;44.76;102797.56;5054917;28;20024;-64
2022/03/09 07:44:34;;;;;;;87.63;50.63;;;;;;;24.87;45.09;102798.41;5054857;28;20609;-64
2022/03/09 07:47:00;;;;;;;79.20;48.33;;;;;;;24.84;45.10;102799.59;5053521;28;20025;-64
2022/03/09 07:49:25;;;;;;;79.07;47.55;;;;;;;24.87;44.11;102796.53;5054438;28;20043;-65
2022/03/09 07:51:50;;;;;;;74.90;45.83;;;;;;;24.92;44.86;102803.41;5054713;28;20029;-64
2022/03/09 07:54:16;;;;;;;80.88;47.42;;;;;;;24.86;44.72;102808.56;5054481;28;20048;-64
2022/03/09 07:56:43;;;;;;;80.47;47.55;;;;;;;24.89;44.25;102810.97;5054683;28;20491;-64
2022/03/09 07:59:10;;;;;;;74.30;45.67;;;;;;;24.98;44.73;102813.72;5054657;28;20456;-64
2022/03/09 08:01:36;;;;;;;78.35;45.90;;;;;;;24.93;44.58;102816.13;5054284;28;20021;-64
2022/03/09 08:04:01;;;;;;;74.70;45.40;;;;;;;24.89;44.63;102816.47;5051614;28;20383;-64
2022/03/09 08:06:27;;;;;;;76.45;45.65;;;;;;;24.95;44.79;102812.19;5052875;28;20060;-64
2022/03/09 08:08:52;;;;;;;76.05;44.95;;;;;;;24.92;45.30;102814.41;5053738;28;20025;-63
2022/03/09 08:11:18;;;;;;;75.75;43.53;;;;;;;24.92;46.08;102814.41;5054624;28;20033;-64
2022/03/09 08:13:43;;;;;;;73.55;44.63;;;;;;;24.91;44.85;102813.56;5053351;28;20416;-64
2022/03/09 08:16:08;;;;;;;78.97;45.17;;;;;;;24.90;44.06;102815.44;5054392;28;20108;-64
2022/03/09 08:18:34;;;;;;;72.40;43.33;;;;;;;24.93;43.53;102810.63;5053950;28;20364;-64
2022/03/09 08:20:59;;;;;;;71.95;43.28;;;;;;;24.96;44.26;102821.31;5051533;28;20051;-64
2022/03/09 08:23:25;;;;;;;81.63;46.45;;;;;;;24.87;45.67;102823.19;5052926;28;20104;-64
2022/03/09 08:25:51;;;;;;;83.85;47.17;;;;;;;24.81;46.17;102824.69;5054261;28;20044;-63
2022/03/09 08:28:17;;;;;;;88.28;51.85;;;;;;;24.83;47.30;102819.03;5053070;28;20025;-64
2022/03/09 08:30:42;;;;;;;111.78;61.00;;;;;;;24.90;47.44;102828.34;5054176;28;20066;-64
2022/03/09 08:33:08;;;;;;;113.47;61.85;;;;;;;24.93;47.68;102824.38;5048904;28;20472;-63
2022/03/09 08:35:33;;;;;;;129.20;69.97;;;;;;;24.86;48.45;102827.81;5040853;28;20056;-63
2022/03/09 08:37:59;;;;;;;138.45;74.90;;;;;;;24.87;48.84;102829.53;5054016;28;20031;-63
2022/03/09 08:40:24;;;;;;;135.93;76.78;;;;;;;24.89;48.67;102826.63;5053577;28;20045;-63
2022/03/09 08:42:50;;;;;;;137.60;75.93;;;;;;;24.87;49.74;102824.03;5051094;28;20036;-63
2022/03/09 08:45:15;;;;;;;141.90;80.80;;;;;;;24.95;49.36;102831.44;5051953;28;20036;-64
2022/03/09 08:47:41;;;;;;;137.60;78.53;;;;;;;24.95;49.89;102822.31;5053974;28;20045;-63
2022/03/09 08:50:07;;;;;;;138.27;77.60;;;;;;;24.86;49.50;102822.31;5054063;28;20534;-63
2022/03/09 08:52:32;;;;;;;142.10;77.38;;;;;;;24.84;50.59;102829.84;5049689;28;20487;-64
2022/03/09 08:54:58;;;;;;;144.38;80.13;;;;;;;24.83;50.42;102836.38;5050498;28;20379;-64
2022/03/09 08:57:23;;;;;;;139.82;79.00;;;;;;;24.79;50.13;102837.75;5052582;28;20380;-63
2022/03/09 08:59:48;;;;;;;145.52;78.28;;;;;;;24.85;51.14;102837.06;5053946;28;20032;-63
2022/03/09 09:02:14;;;;;;;143.15;80.15;;;;;;;24.93;50.67;102843.66;5042441;28;20513;-64
2022/03/09 09:04:39;;;;;;;148.52;81.38;;;;;;;24.87;50.91;102840.56;5033505;28;20025;-63
2022/03/09 09:07:06;;;;;;;151.88;84.93;;;;;;;24.84;50.98;102846.34;5033415;28;20025;-64
2022/03/09 09:09:31;;;;;;;152.85;83.20;;;;;;;24.97;50.80;102839.53;5040474;28;20024;-64
2022/03/09 09:11:57;;;;;;;149.10;84.88;;;;;;;24.86;50.89;102848.97;5038469;28;20041;-63
2022/03/09 09:14:22;;;;;;;140.98;82.47;;;;;;;24.85;51.16;102848.09;5043179;28;20514;-64
2022/03/09 09:16:48;;;;;;;149.65;85.38;;;;;;;24.87;51.42;102845.19;5053030;28;20048;-64
2022/03/09 09:19:13;;;;;;;148.18;82.90;;;;;;;24.95;51.45;102852.59;5049564;28;20067;-63
2022/03/09 09:21:39;;;;;;;145.27;81.65;;;;;;;24.92;52.19;102852.94;5048559;28;20403;-63
2022/03/09 09:24:05;;;;;;;137.60;79.57;;;;;;;24.93;51.61;102855.53;5050464;28;20017;-63
2022/03/09 09:26:30;;;;;;;138.30;79.20;;;;;;;24.90;51.81;102862.22;5051264;28;20028;-63
2022/03/09 09:28:55;;;;;;;153.95;87.32;;;;;;;24.87;51.91;102861.69;5043085;28;20029;-63
2022/03/09 09:31:21;;;;;;;148.18;81.32;;;;;;;24.93;51.47;102865.66;5048712;28;20052;-64
2022/03/09 09:33:46;;;;;;;149.07;84.38;;;;;;;24.89;52.59;102866.00;5055127;28;20028;-64
2022/03/09 09:36:11;;;;;;;145.35;84.18;;;;;;;24.93;52.43;102866.53;5037840;28;20033;-64
2022/03/09 09:38:37;;;;;;;147.18;84.63;;;;;;;24.90;53.10;102873.22;5043873;28;20469;-63
2022/03/09 09:41:02;;;;;;;154.82;83.70;;;;;;;24.96;52.34;102877.19;5032984;28;20022;-63
2022/03/09 09:43:28;;;;;;;140.20;82.28;;;;;;;24.94;52.51;102881.16;5050476;28;20021;-64
2022/03/09 09:45:56;;;;;;;148.43;83.00;;;;;;;24.92;52.21;102880.44;5052756;28;20021;-63
2022/03/09 09:48:22;;;;;;;140.68;82.78;;;;;;;24.90;52.96;102884.22;5047466;28;20041;-64
2022/03/09 09:50:48;;;;;;;143.82;81.93;;;;;;;24.93;52.54;102879.44;5050760;28;20040;-63
2022/03/09 09:53:14;;;;;;;144.00;83.82;;;;;;;24.88;52.50;102886.28;5049174;28;20025;-64
2022/03/09 09:55:42;;;;;;;146.35;82.78;;;;;;;24.94;52.70;102889.41;5039901;28;20020;-63
2022/03/09 09:58:07;;;;;;;143.00;82.93;;;;;;;24.95;52.71;102896.63;5052551;28;20037;-63
2022/03/09 10:00:34;;;;;;;155.75;86.82;;;;;;;24.87;52.47;102895.56;5052304;28;20036;-64
2022/03/09 10:02:59;;;;;;;144.15;82.50;;;;;;;24.97;52.63;102889.06;5052285;28;20032;-64
2022/03/09 10:05:25;;;;;;;150.07;81.57;;;;;;;24.87;52.88;102901.09;5052196;28;20029;-64
2022/03/09 10:08:06;;;;;;;145.05;82.50;;;;;;;24.94;53.09;102905.91;5040105;28;20063;-64
2022/03/09 10:10:42;;;;;;;139.23;81.57;;;;;;;24.94;53.23;102905.91;5033903;28;20037;-64
2022/03/09 10:13:20;;;;;;;141.63;80.88;;;;;;;25.01;52.88;102901.47;5032346;28;20030;-64
2022/03/09 10:15:47;;;;;;;139.60;80.63;;;;;;;24.96;53.32;102903.84;5041271;28;20041;-64
2022/03/09 10:18:13;;;;;;;142.93;81.90;;;;;;;24.94;53.07;102900.41;5037127;28;20025;-64
2022/03/09 10:20:38;;;;;;;147.30;83.90;;;;;;;24.96;53.03;102904.72;5041261;28;20067;-64
2022/03/09 10:23:03;;;;;;;142.93;84.60;;;;;;;24.89;52.62;102899.03;5046206;28;20032;-64
2022/03/09 10:25:29;;;;;;;142.48;81.47;;;;;;;24.95;53.11;102918.63;5051664;28;20025;-64
2022/03/09 10:27:56;;;;;;;140.48;80.57;;;;;;;24.94;53.31;102911.41;5051648;28;20483;-64
2022/03/09 10:30:24;;;;;;;139.38;82.07;;;;;;;25.02;53.38;102908.72;5051971;28;20033;-64
2022/03/09 10:32:58;;;;;;;142.48;80.82;;;;;;;24.94;53.07;102916.91;5046862;28;20028;-64
2022/03/09 10:35:29;;;;;;;144.40;81.22;;;;;;;24.92;53.25;102913.47;5043064;28;20037;-64
2022/03/09 10:37:59;;;;;;;150.70;85.35;;;;;;;25.02;53.48;102919.72;5048009;28;20021;-63
2022/03/09 10:40:26;;;;;;;137.32;79.53;;;;;;;25.02;53.10;102911.47;5043670;28;20105;-64
2022/03/09 10:43:08;;;;;;;139.20;79.10;;;;;;;25.02;53.17;102912.31;5051880;28;20456;-63
2022/03/09 10:45:33;;;;;;;140.82;81.80;;;;;;;24.85;53.13;102924.25;5051950;28;20052;-64
2022/03/09 10:47:58;;;;;;;142.95;80.90;;;;;;;24.95;51.90;102922.25;5051944;28;20484;-63
2022/03/09 10:50:25;;;;;;;144.63;83.30;;;;;;;24.87;51.43;102920.34;5051884;28;20025;-64
2022/03/09 10:52:55;;;;;;;143.13;80.32;;;;;;;24.95;52.18;102929.66;5049783;28;20021;-63
2022/03/09 10:55:32;;;;;;;150.30;84.10;;;;;;;24.94;52.31;102927.91;5038125;28;20072;-63
2022/03/09 10:58:16;;;;;;;148.82;81.80;;;;;;;24.89;51.77;102923.78;5032173;28;20041;-63